createdAt,value
2022-10-20T00:00:53.515Z,26.17
2022-10-20T00:03:19.794Z,23.13
2022-10-20T00:05:46.072Z,26.42
2022-10-20T00:08:12.363Z,22.83
2022-10-20T00:10:38.626Z,25.02
2022-10-20T00:13:04.903Z,24.33
2022-10-20T00:15:31.193Z,26.75
2022-10-20T00:17:57.455Z,19.27
2022-10-20T00:20:23.726Z,21.52
2022-10-20T00:22:50.000Z,19.10
2022-10-20T00:25:16.394Z,26.33
2022-10-20T00:27:42.671Z,17.98
2022-10-20T00:30:09.478Z,22.83
2022-10-20T00:32:36.174Z,12.85
2022-10-20T00:35:02.962Z,22.02
2022-10-20T00:37:29.226Z,14.88
2022-10-20T00:39:55.498Z,14.88
2022-10-20T00:42:21.822Z,13.27
2022-10-20T00:44:50.008Z,17.02
2022-10-20T00:47:17.785Z,15.48
2022-10-20T00:49:44.570Z,11.70
2022-10-20T00:52:11.122Z,16.08
2022-10-20T00:54:37.844Z,15.02
2022-10-20T00:57:04.543Z,13.25
2022-10-20T00:59:33.133Z,17.15
2022-10-20T01:01:59.967Z,14.68
2022-10-20T01:04:27.926Z,17.10
2022-10-20T01:06:54.242Z,13.88
2022-10-20T01:09:20.593Z,15.82
2022-10-20T01:11:46.840Z,16.10
2022-10-20T01:14:22.389Z,12.70
2022-10-20T01:16:58.527Z,15.82
2022-10-20T01:19:45.804Z,16.60
2022-10-20T01:22:28.877Z,10.77
2022-10-20T01:25:06.918Z,12.98
2022-10-20T01:27:34.871Z,12.65
2022-10-20T01:30:12.209Z,10.25
2022-10-20T01:32:56.526Z,11.90
2022-10-20T01:35:22.799Z,7.72
2022-10-20T01:37:53.370Z,6.97
2022-10-20T01:40:19.799Z,8.98
2022-10-20T01:42:47.636Z,7.03
2022-10-20T01:45:15.181Z,6.45
2022-10-20T01:47:42.454Z,7.70
2022-10-20T01:50:10.164Z,6.97
2022-10-20T01:52:36.987Z,5.78
2022-10-20T01:55:10.956Z,10.70
2022-10-20T01:57:52.579Z,8.20
2022-10-20T02:00:18.923Z,9.43
2022-10-20T02:02:55.851Z,11.82
2022-10-20T02:05:37.398Z,7.70
2022-10-20T02:08:16.210Z,8.95
2022-10-20T02:10:50.321Z,6.97
2022-10-20T02:13:18.745Z,8.38
2022-10-20T02:15:47.035Z,12.10
2022-10-20T02:18:15.702Z,12.05
2022-10-20T02:20:43.272Z,9.50
2022-10-20T02:23:09.945Z,6.60
2022-10-20T02:25:37.971Z,9.35
2022-10-20T02:28:05.226Z,10.93
2022-10-20T02:30:32.020Z,11.00
2022-10-20T02:32:58.297Z,8.25
2022-10-20T02:35:29.620Z,13.38
2022-10-20T02:37:56.634Z,8.07
2022-10-20T02:40:23.137Z,10.98
2022-10-20T02:42:49.474Z,14.65
2022-10-20T02:45:15.974Z,12.30
2022-10-20T02:47:42.298Z,14.15
2022-10-20T02:50:08.803Z,9.50
2022-10-20T02:52:35.245Z,10.65
2022-10-20T02:55:01.538Z,14.32
2022-10-20T02:57:27.885Z,11.07
2022-10-20T02:59:54.250Z,11.80
2022-10-20T03:02:20.589Z,16.27
2022-10-20T03:04:46.939Z,11.75
2022-10-20T03:07:13.428Z,10.68
2022-10-20T03:09:40.000Z,9.18
2022-10-20T03:12:06.278Z,12.02
2022-10-20T03:14:32.563Z,14.57
2022-10-20T03:16:58.824Z,10.80
2022-10-20T03:19:25.154Z,14.57
2022-10-20T03:21:51.426Z,13.38
2022-10-20T03:24:18.530Z,15.20
2022-10-20T03:26:44.784Z,12.27
2022-10-20T03:29:11.061Z,13.77
2022-10-20T03:31:37.400Z,15.57
2022-10-20T03:34:03.750Z,13.73
2022-10-20T03:36:30.013Z,11.85
2022-10-20T03:38:56.285Z,12.63
2022-10-20T03:41:22.598Z,15.77
2022-10-20T03:43:48.878Z,11.57
2022-10-20T03:46:15.141Z,15.88
2022-10-20T03:48:41.706Z,16.10
2022-10-20T03:51:09.318Z,12.45
2022-10-20T03:53:35.823Z,14.85
2022-10-20T03:56:05.753Z,12.68
2022-10-20T03:58:32.055Z,12.40
2022-10-20T04:00:58.347Z,13.45
2022-10-20T04:03:24.836Z,15.85
2022-10-20T04:05:51.119Z,13.25
2022-10-20T04:08:17.388Z,16.55
2022-10-20T04:10:43.684Z,20.23
2022-10-20T04:13:09.967Z,16.20
2022-10-20T04:15:36.266Z,20.65
2022-10-20T04:18:02.541Z,16.95
2022-10-20T04:20:28.827Z,17.67
2022-10-20T04:22:55.108Z,15.82
2022-10-20T04:25:21.512Z,15.38
2022-10-20T04:27:47.773Z,16.38
2022-10-20T04:30:14.049Z,11.48
2022-10-20T04:32:40.410Z,11.93
2022-10-20T04:35:07.083Z,15.77
2022-10-20T04:37:33.928Z,17.80
2022-10-20T04:40:00.604Z,14.52
2022-10-20T04:42:26.913Z,13.68
2022-10-20T04:44:53.251Z,13.75
2022-10-20T04:47:19.579Z,17.27
2022-10-20T04:49:45.904Z,16.42
2022-10-20T04:52:12.174Z,21.17
2022-10-20T04:54:38.447Z,16.80
2022-10-20T04:57:06.152Z,22.17
2022-10-20T04:59:32.519Z,17.65
2022-10-20T05:01:58.823Z,13.02
2022-10-20T05:04:25.251Z,14.88
2022-10-20T05:06:51.523Z,20.65
2022-10-20T05:09:17.900Z,13.85
2022-10-20T05:11:44.167Z,14.50
2022-10-20T05:14:10.576Z,24.02
2022-10-20T05:16:36.899Z,18.15
2022-10-20T05:19:03.304Z,25.00
2022-10-20T05:21:30.840Z,15.55
2022-10-20T05:24:01.389Z,23.20
2022-10-20T05:26:28.394Z,18.05
2022-10-20T05:28:54.747Z,18.20
2022-10-20T05:31:21.810Z,18.10
2022-10-20T05:33:49.805Z,22.83
2022-10-20T05:36:19.465Z,23.88
2022-10-20T05:38:48.063Z,22.77
2022-10-20T05:41:16.074Z,17.45
2022-10-20T05:43:42.475Z,26.10
2022-10-20T05:46:08.989Z,22.55
2022-10-20T05:48:39.394Z,20.00
2022-10-20T05:51:10.725Z,18.83
2022-10-20T05:53:40.166Z,19.05
2022-10-20T05:56:07.787Z,18.55
2022-10-20T05:58:34.227Z,18.17
2022-10-20T06:01:11.348Z,18.35
2022-10-20T06:03:37.739Z,21.35
2022-10-20T06:06:04.277Z,17.48
2022-10-20T06:08:31.901Z,20.27
2022-10-20T06:11:02.935Z,21.77
2022-10-20T06:13:30.375Z,17.67
2022-10-20T06:16:00.867Z,17.80
2022-10-20T06:21:00.951Z,24.75
2022-10-20T06:23:27.236Z,17.95
2022-10-20T06:25:53.620Z,20.30
2022-10-20T06:28:19.887Z,18.70
2022-10-20T06:30:46.188Z,16.60
2022-10-20T06:33:14.843Z,22.92
2022-10-20T06:35:41.253Z,20.88
2022-10-20T06:38:07.550Z,14.98
2022-10-20T06:40:33.921Z,20.73
2022-10-20T06:43:00.214Z,21.33
2022-10-20T06:45:26.561Z,19.00
2022-10-20T06:47:52.837Z,20.63
2022-10-20T06:50:19.117Z,18.45
2022-10-20T06:52:45.403Z,19.75
2022-10-20T06:55:11.814Z,15.20
2022-10-20T06:57:38.084Z,25.38
2022-10-20T07:00:04.981Z,16.77
2022-10-20T07:02:31.250Z,16.63
2022-10-20T07:04:57.519Z,14.35
2022-10-20T07:07:23.810Z,15.27
2022-10-20T07:09:50.106Z,14.98
2022-10-20T07:12:16.390Z,21.77
2022-10-20T07:14:42.675Z,15.10
2022-10-20T07:17:08.954Z,12.98
2022-10-20T07:19:35.231Z,17.38
2022-10-20T07:22:01.497Z,14.90
2022-10-20T07:24:28.945Z,11.98
2022-10-20T07:26:55.275Z,13.50
2022-10-20T07:29:21.663Z,12.50
2022-10-20T07:31:48.083Z,10.52
2022-10-20T07:34:30.677Z,13.40
2022-10-20T07:36:57.470Z,13.82
2022-10-20T07:39:24.158Z,11.65
2022-10-20T07:41:50.985Z,17.35
2022-10-20T07:44:17.428Z,10.98
2022-10-20T07:46:44.071Z,14.55
2022-10-20T07:49:42.985Z,9.55
2022-10-20T07:51:56.689Z,13.15
2022-10-20T07:54:22.984Z,19.02
2022-10-20T07:56:49.575Z,9.98
2022-10-20T07:59:15.949Z,10.93
2022-10-20T08:01:42.348Z,12.18
2022-10-20T08:04:08.647Z,10.38
2022-10-20T08:06:34.922Z,8.95
2022-10-20T08:09:01.456Z,10.73
2022-10-20T08:11:27.788Z,9.65
2022-10-20T08:13:54.056Z,12.10
2022-10-20T08:16:28.859Z,9.90
2022-10-20T08:21:26.556Z,9.00
2022-10-20T08:23:52.834Z,8.60
2022-10-20T08:26:21.668Z,10.93
2022-10-20T08:28:51.677Z,9.88
2022-10-20T08:31:18.145Z,10.82
2022-10-20T08:33:46.814Z,8.40
2022-10-20T08:36:16.384Z,9.43
2022-10-20T08:38:43.509Z,21.85
2022-10-20T08:41:16.178Z,13.75
2022-10-20T08:43:42.716Z,8.98
2022-10-20T08:46:16.255Z,12.48
2022-10-20T08:48:43.482Z,12.05
2022-10-20T08:51:15.394Z,9.65
2022-10-20T08:53:41.672Z,9.48
2022-10-20T08:56:11.636Z,11.25
2022-10-20T08:58:41.155Z,13.65
2022-10-20T09:01:14.246Z,10.85
2022-10-20T09:03:41.202Z,12.02
2022-10-20T09:06:14.127Z,9.68
2022-10-20T09:08:41.466Z,8.20
2022-10-20T09:11:08.979Z,9.05
2022-10-20T09:13:36.759Z,7.32
2022-10-20T09:16:06.062Z,7.90
2022-10-20T09:18:32.937Z,13.43
2022-10-20T09:21:00.960Z,10.18
2022-10-20T09:23:41.181Z,6.30
2022-10-20T09:26:24.796Z,7.93
2022-10-20T09:29:12.912Z,8.40
2022-10-20T09:32:11.424Z,9.48
2022-10-20T09:34:46.492Z,13.20
2022-10-20T09:37:13.742Z,7.65
2022-10-20T09:39:39.998Z,7.93
2022-10-20T09:42:12.267Z,7.32
2022-10-20T09:44:58.851Z,8.65
2022-10-20T09:47:26.595Z,7.25
2022-10-20T09:50:01.061Z,11.65
2022-10-20T09:52:34.981Z,8.40
2022-10-20T09:55:03.425Z,7.82
2022-10-20T09:57:30.629Z,12.73
2022-10-20T10:00:04.494Z,5.82
2022-10-20T10:02:39.511Z,5.85
2022-10-20T10:05:13.507Z,7.93
2022-10-20T10:07:39.841Z,7.30
2022-10-20T10:10:08.660Z,6.50
2022-10-20T10:12:35.986Z,7.88
2022-10-20T10:15:04.868Z,8.48
2022-10-20T10:17:36.057Z,6.05
2022-10-20T10:20:07.744Z,8.15
2022-10-20T10:22:35.247Z,8.35
2022-10-20T10:25:02.457Z,5.22
2022-10-20T10:27:30.239Z,6.53
2022-10-20T10:30:16.489Z,6.43
2022-10-20T10:32:46.475Z,5.60
2022-10-20T10:35:27.206Z,12.90
2022-10-20T10:37:53.842Z,7.90
2022-10-20T10:40:21.617Z,8.93
2022-10-20T10:42:56.951Z,4.22
2022-10-20T10:45:38.454Z,6.43
2022-10-20T10:48:04.695Z,5.15
2022-10-20T10:50:35.393Z,4.00
2022-10-20T10:53:07.509Z,6.15
2022-10-20T10:55:48.211Z,7.57
2022-10-20T10:58:18.224Z,6.03
2022-10-20T11:00:44.543Z,7.03
2022-10-20T11:03:18.887Z,9.32
2022-10-20T11:05:56.183Z,6.65
2022-10-20T11:08:42.768Z,6.15
2022-10-20T11:11:09.042Z,4.88
2022-10-20T11:13:54.142Z,4.65
2022-10-20T11:16:28.262Z,3.25
2022-10-20T11:19:00.160Z,3.72
2022-10-20T11:21:36.144Z,9.05
2022-10-20T11:24:21.087Z,5.00
2022-10-20T11:26:50.346Z,4.65
2022-10-20T11:29:20.367Z,3.75
2022-10-20T11:31:46.776Z,5.70
2022-10-20T11:34:33.639Z,5.18
2022-10-20T11:37:07.527Z,4.78
2022-10-20T11:39:42.930Z,4.45
2022-10-20T11:42:23.604Z,6.85
2022-10-20T11:44:51.470Z,3.88
2022-10-20T11:47:21.359Z,3.65
2022-10-20T11:49:47.732Z,6.90
2022-10-20T11:52:32.902Z,5.90
2022-10-20T11:55:13.370Z,5.50
2022-10-20T11:57:42.675Z,5.80
2022-10-20T12:00:31.379Z,4.53
2022-10-20T12:03:09.561Z,4.38
2022-10-20T12:05:42.129Z,6.20
2022-10-20T12:08:30.769Z,4.45
2022-10-20T12:11:15.946Z,8.90
2022-10-20T12:14:00.542Z,4.60
2022-10-20T12:16:45.742Z,5.70
2022-10-20T12:19:17.152Z,5.82
2022-10-20T12:21:58.752Z,4.97
2022-10-20T12:25:03.388Z,5.90
2022-10-20T12:27:30.093Z,8.48
2022-10-20T12:30:15.306Z,7.18
2022-10-20T12:32:55.378Z,8.38
2022-10-20T12:37:55.793Z,10.02
2022-10-20T12:40:28.139Z,5.55
2022-10-20T12:42:55.253Z,6.63
2022-10-20T12:45:39.390Z,8.10
2022-10-20T12:48:06.682Z,11.40
2022-10-20T12:50:44.619Z,4.18
2022-10-20T12:53:13.574Z,6.43
2022-10-20T12:55:42.065Z,6.45
2022-10-20T12:58:17.954Z,4.63
2022-10-20T13:00:47.341Z,6.88
2022-10-20T13:03:31.912Z,7.93
2022-10-20T13:06:01.748Z,3.92
2022-10-20T13:08:32.471Z,8.23
2022-10-20T13:11:17.267Z,7.10
2022-10-20T13:13:51.019Z,6.50
2022-10-20T13:16:19.480Z,4.43
2022-10-20T13:18:46.861Z,5.72
2022-10-20T13:21:16.161Z,7.68
2022-10-20T13:23:42.424Z,4.90
2022-10-20T13:26:22.329Z,7.72
2022-10-20T13:28:49.649Z,6.40
2022-10-20T13:31:36.770Z,7.80
2022-10-20T13:34:05.965Z,11.82
2022-10-20T13:36:51.505Z,5.70
2022-10-20T13:39:21.944Z,6.43
2022-10-20T13:42:14.425Z,6.03
2022-10-20T13:44:59.618Z,6.68
2022-10-20T13:47:45.865Z,6.28
2022-10-20T13:50:13.826Z,4.85
2022-10-20T13:52:52.707Z,8.32
2022-10-20T13:55:21.289Z,6.00
2022-10-20T13:57:55.351Z,7.35
2022-10-20T14:00:24.270Z,6.70
2022-10-20T14:02:55.071Z,6.10
2022-10-20T14:05:22.209Z,5.53
2022-10-20T14:07:50.622Z,4.65
2022-10-20T14:10:30.232Z,9.40
2022-10-20T14:12:56.877Z,10.88
2022-10-20T14:15:26.414Z,7.63
2022-10-20T14:17:56.863Z,9.40
2022-10-20T14:20:23.502Z,7.45
2022-10-20T14:22:50.815Z,6.78
2022-10-20T14:25:17.423Z,8.15
2022-10-20T14:27:45.034Z,8.60
2022-10-20T14:30:15.189Z,9.82
2022-10-20T14:35:18.632Z,7.25
2022-10-20T14:37:47.029Z,12.30
2022-10-20T14:40:21.393Z,12.85
2022-10-20T14:42:47.672Z,5.25
2022-10-20T14:45:21.743Z,6.18
2022-10-20T14:47:48.587Z,4.82
2022-10-20T14:50:23.447Z,5.53
2022-10-20T14:52:53.836Z,15.75
2022-10-20T14:55:27.807Z,16.27
2022-10-20T14:57:54.372Z,16.80
2022-10-20T15:00:23.893Z,17.95
2022-10-20T15:02:56.344Z,24.02
2022-10-20T15:05:32.095Z,18.38
2022-10-20T15:08:07.400Z,10.40
2022-10-20T15:10:33.696Z,8.20
2022-10-20T15:13:01.157Z,7.90
2022-10-20T15:15:29.091Z,8.18
2022-10-20T15:18:04.578Z,6.90
2022-10-20T15:20:33.890Z,9.23
2022-10-20T15:23:06.237Z,11.45
2022-10-20T15:25:36.790Z,5.53
2022-10-20T15:28:03.162Z,7.28
2022-10-20T15:30:29.746Z,6.55
2022-10-20T15:32:56.018Z,5.10
2022-10-20T15:35:24.329Z,6.47
2022-10-20T15:37:52.432Z,7.05
2022-10-20T15:40:19.449Z,8.40
2022-10-20T15:42:45.706Z,8.02
2022-10-20T15:45:32.296Z,7.57
2022-10-20T15:47:58.562Z,9.43
2022-10-20T15:50:25.027Z,9.57
2022-10-20T15:52:51.350Z,5.85
2022-10-20T15:55:22.141Z,5.38
2022-10-20T15:57:49.773Z,6.25
2022-10-20T16:00:16.116Z,8.30
2022-10-20T16:02:42.375Z,10.02
2022-10-20T16:05:08.763Z,7.25
2022-10-20T16:07:35.398Z,7.93
2022-10-20T16:10:01.901Z,17.50
2022-10-20T16:12:28.154Z,10.60
2022-10-20T16:14:54.693Z,8.40
2022-10-20T16:17:20.955Z,11.13
2022-10-20T16:19:47.246Z,9.45
2022-10-20T16:22:13.536Z,9.32
2022-10-20T16:24:39.813Z,10.32
2022-10-20T16:27:06.392Z,16.25
2022-10-20T16:29:32.871Z,12.10
2022-10-20T16:31:59.868Z,15.75
2022-10-20T16:34:29.265Z,10.73
2022-10-20T16:36:55.547Z,8.88
2022-10-20T16:39:21.877Z,9.43
2022-10-20T16:41:48.169Z,10.40
2022-10-20T16:44:14.452Z,9.43
2022-10-20T16:46:40.902Z,11.43
2022-10-20T16:49:07.191Z,10.02
2022-10-20T16:51:33.476Z,12.32
2022-10-20T16:54:03.229Z,11.60
2022-10-20T16:58:56.091Z,8.52
2022-10-20T17:01:22.765Z,10.10
2022-10-20T17:03:50.120Z,12.38
2022-10-20T17:06:18.049Z,12.50
2022-10-20T17:08:44.518Z,11.05
2022-10-20T17:11:12.711Z,10.65
2022-10-20T17:13:39.423Z,11.63
2022-10-20T17:16:07.054Z,12.45
2022-10-20T17:18:33.529Z,11.82
2022-10-20T17:20:59.811Z,11.80
2022-10-20T17:23:26.589Z,16.58
2022-10-20T17:25:53.343Z,12.27
2022-10-20T17:28:19.637Z,14.43
2022-10-20T17:30:46.846Z,14.40
2022-10-20T17:33:13.274Z,12.25
2022-10-20T17:35:39.739Z,13.63
2022-10-20T17:38:06.336Z,23.90
2022-10-20T17:40:36.125Z,13.30
2022-10-20T17:43:02.469Z,16.35
2022-10-20T17:45:28.739Z,16.20
2022-10-20T17:47:55.539Z,14.90
2022-10-20T17:50:21.821Z,19.15
2022-10-20T17:52:48.219Z,12.18
2022-10-20T17:55:14.505Z,16.38
2022-10-20T17:57:40.978Z,16.17
2022-10-20T18:00:12.937Z,16.95
2022-10-20T18:02:45.636Z,14.05
2022-10-20T18:05:11.912Z,14.77
2022-10-20T18:07:38.191Z,18.05
2022-10-20T18:10:04.692Z,16.13
2022-10-20T18:12:30.953Z,13.98
2022-10-20T18:14:57.254Z,17.55
2022-10-20T18:17:23.717Z,14.70
2022-10-20T18:19:50.831Z,14.82
2022-10-20T18:22:17.127Z,18.65
2022-10-20T18:24:43.507Z,17.65
2022-10-20T18:27:09.987Z,17.95
2022-10-20T18:29:36.265Z,15.77
2022-10-20T18:32:02.710Z,15.88
2022-10-20T18:34:28.993Z,18.30
2022-10-20T18:36:56.125Z,15.57
2022-10-20T18:39:22.586Z,14.70
2022-10-20T18:41:52.417Z,16.40
2022-10-20T18:44:19.143Z,17.13
2022-10-20T18:46:46.462Z,13.23
2022-10-20T18:49:13.872Z,16.92
2022-10-20T18:51:40.197Z,17.48
2022-10-20T18:54:07.959Z,19.02
2022-10-20T18:56:35.231Z,18.50
2022-10-20T18:59:03.240Z,23.73
2022-10-20T19:01:33.754Z,20.23
2022-10-20T19:04:00.609Z,15.98
2022-10-20T19:06:31.352Z,17.42
2022-10-20T19:09:01.936Z,19.95
2022-10-20T19:11:29.417Z,22.00
2022-10-20T19:13:56.155Z,26.40
2022-10-20T19:16:24.691Z,19.30
2022-10-20T19:18:51.876Z,20.20
2022-10-20T19:21:18.811Z,19.20
2022-10-20T19:23:46.544Z,24.08
2022-10-20T19:26:17.839Z,20.08
2022-10-20T19:28:46.351Z,21.58
2022-10-20T19:31:20.903Z,22.75
2022-10-20T19:33:49.348Z,20.52
2022-10-20T19:36:15.640Z,19.95
2022-10-20T19:38:41.930Z,23.00
2022-10-20T19:41:08.463Z,20.85
2022-10-20T19:43:35.734Z,26.25
2022-10-20T19:46:02.367Z,28.48
2022-10-20T19:48:28.703Z,26.55
2022-10-20T19:50:55.000Z,25.00
2022-10-20T19:53:21.719Z,26.52
2022-10-20T19:55:48.967Z,25.10
2022-10-20T19:58:15.704Z,20.98
2022-10-20T20:00:46.093Z,19.63
2022-10-20T20:03:12.843Z,23.50
2022-10-20T20:05:39.310Z,20.77
2022-10-20T20:08:05.837Z,24.55
2022-10-20T20:10:32.199Z,24.92
2022-10-20T20:12:58.489Z,26.42
2022-10-20T20:15:24.918Z,21.05
2022-10-20T20:17:51.239Z,28.85
2022-10-20T20:20:17.744Z,22.50
2022-10-20T20:22:44.003Z,29.85
2022-10-20T20:25:10.272Z,24.17
2022-10-20T20:27:36.792Z,32.70
2022-10-20T20:30:04.255Z,21.95
2022-10-20T20:32:32.052Z,22.42
2022-10-20T20:34:59.003Z,29.60
2022-10-20T20:37:25.349Z,24.92
2022-10-20T20:39:51.614Z,28.27
2022-10-20T20:42:17.894Z,24.33
2022-10-20T20:44:44.198Z,25.30
2022-10-20T20:47:10.489Z,30.15
2022-10-20T20:49:36.758Z,19.23
2022-10-20T20:52:03.100Z,22.25
2022-10-20T20:54:32.215Z,23.90
2022-10-20T20:56:59.406Z,20.98
2022-10-20T20:59:25.731Z,22.38
2022-10-20T21:01:52.003Z,22.00
2022-10-20T21:04:18.284Z,18.92
2022-10-20T21:07:03.140Z,24.73
2022-10-20T21:09:29.868Z,17.00
2022-10-20T21:11:56.197Z,21.02
2022-10-20T21:14:22.531Z,24.45
2022-10-20T21:16:48.809Z,18.50
2022-10-20T21:19:15.194Z,25.58
2022-10-20T21:21:44.218Z,21.30
2022-10-20T21:24:11.460Z,21.60
2022-10-20T21:26:37.790Z,25.83
2022-10-20T21:29:04.308Z,30.38
2022-10-20T21:31:31.270Z,21.15
2022-10-20T21:34:01.436Z,21.85
2022-10-20T21:38:54.243Z,27.85
2022-10-20T21:41:24.796Z,25.85
2022-10-20T21:43:52.130Z,24.75
2022-10-20T21:46:22.858Z,37.05
2022-10-20T21:48:50.704Z,27.00
2022-10-20T21:51:22.124Z,28.15
2022-10-20T21:53:48.390Z,25.58
2022-10-20T21:56:15.428Z,26.52
2022-10-20T21:58:42.338Z,25.23
2022-10-20T22:01:15.686Z,29.60
2022-10-20T22:03:42.730Z,25.30
2022-10-20T22:06:09.663Z,24.67
2022-10-20T22:08:39.953Z,19.27
2022-10-20T22:11:07.494Z,20.48
2022-10-20T22:13:33.999Z,17.75
2022-10-20T22:16:00.286Z,19.52
2022-10-20T22:18:27.015Z,23.70
2022-10-20T22:20:53.295Z,22.75
2022-10-20T22:23:19.757Z,22.60
2022-10-20T22:25:46.118Z,27.65
2022-10-20T22:28:12.384Z,30.80
2022-10-20T22:30:38.670Z,21.92
2022-10-20T22:33:04.992Z,24.25
2022-10-20T22:35:31.374Z,24.85
2022-10-20T22:37:57.655Z,32.08
2022-10-20T22:40:24.430Z,26.60
2022-10-20T22:42:50.749Z,27.17
2022-10-20T22:45:17.132Z,25.35
2022-10-20T22:47:43.434Z,26.60
2022-10-20T22:50:09.709Z,27.58
2022-10-20T22:52:36.368Z,22.13
2022-10-20T22:55:02.864Z,26.40
2022-10-20T22:57:29.184Z,24.20
2022-10-20T22:59:55.732Z,22.95
2022-10-20T23:02:22.063Z,23.98
2022-10-20T23:04:48.326Z,20.55
2022-10-20T23:07:14.608Z,18.95
2022-10-20T23:09:40.939Z,19.10
2022-10-20T23:12:07.228Z,23.50
2022-10-20T23:14:33.494Z,25.67
2022-10-20T23:16:59.774Z,19.92
2022-10-20T23:19:26.029Z,21.70
2022-10-20T23:21:52.301Z,18.42
2022-10-20T23:24:18.584Z,24.60
2022-10-20T23:26:44.863Z,23.02
2022-10-20T23:29:11.187Z,23.48
2022-10-20T23:31:37.479Z,24.95
2022-10-20T23:34:03.747Z,20.95
2022-10-20T23:36:30.017Z,24.02
2022-10-20T23:38:56.274Z,24.42
2022-10-20T23:41:22.547Z,20.13
2022-10-20T23:43:48.859Z,20.17
2022-10-20T23:46:15.216Z,20.60
2022-10-20T23:48:41.483Z,28.08
2022-10-20T23:51:08.251Z,28.80
2022-10-20T23:53:34.877Z,24.65
2022-10-20T23:56:01.153Z,24.75
2022-10-20T23:58:27.445Z,27.88
